createdAt,value
2024-04-19T00:09:25.855Z,101334.72
2024-04-19T00:31:57.880Z,101289.38
2024-04-19T00:54:29.935Z,101234.28
2024-04-19T01:17:01.926Z,101190.25
2024-04-19T01:39:33.935Z,101128.56
2024-04-19T02:02:05.954Z,101069.25
2024-04-19T02:24:38.147Z,100993.75
2024-04-19T02:47:10.156Z,100922.88
2024-04-19T03:09:42.027Z,100843.56
2024-04-19T03:32:13.956Z,100776.72
2024-04-19T03:54:45.853Z,100716.47
2024-04-19T04:17:17.877Z,100656.78
2024-04-19T04:39:49.938Z,100622.13
2024-04-19T05:02:21.996Z,100602.78
2024-04-19T05:24:54.003Z,100584.69
2024-04-19T05:47:25.946Z,100561.50
2024-04-19T06:09:57.976Z,100549.88
2024-04-19T06:32:30.133Z,100510.88
2024-04-19T06:55:02.252Z,100510.44
2024-04-19T07:17:35.724Z,100478.38
2024-04-19T07:40:09.718Z,100485.31
2024-04-19T08:02:41.705Z,100460.41
2024-04-19T08:25:13.619Z,100463.75
2024-04-19T08:47:47.208Z,100420.91
2024-04-19T09:10:22.883Z,100444.06
2024-04-19T09:32:55.384Z,100413.81
2024-04-19T09:55:36.604Z,100401.72
2024-04-19T10:18:09.029Z,100374.66
2024-04-19T10:40:41.579Z,100345.34
2024-04-19T11:03:19.875Z,100335.13
2024-04-19T11:25:56.833Z,100321.50
2024-04-19T11:48:29.625Z,100302.63
2024-04-19T12:11:01.960Z,100345.66
2024-04-19T12:33:34.306Z,100326.53
2024-04-19T12:56:07.210Z,100335.31
2024-04-19T13:18:39.395Z,100314.31
2024-04-19T13:41:11.435Z,100289.00
2024-04-19T14:03:43.756Z,100303.69
2024-04-19T14:26:22.764Z,100308.06
2024-04-19T14:48:55.556Z,100305.03
2024-04-19T15:11:27.656Z,100327.03
2024-04-19T15:34:09.874Z,100329.78
2024-04-19T15:56:51.966Z,100344.94
2024-04-19T16:19:24.803Z,100358.38
2024-04-19T16:41:58.190Z,100415.44
2024-04-19T17:04:30.589Z,100459.63
2024-04-19T17:27:02.702Z,100491.84
2024-04-19T17:49:34.754Z,100565.38
2024-04-19T18:12:08.083Z,100630.22
2024-04-19T18:34:39.946Z,100704.78
2024-04-19T18:57:11.793Z,100747.25
2024-04-19T19:19:44.354Z,100793.41
2024-04-19T19:42:16.798Z,100863.66
2024-04-19T20:05:07.268Z,100904.13
2024-04-19T20:27:39.281Z,100953.13
2024-04-19T20:50:16.921Z,101001.50
2024-04-19T21:12:48.784Z,101049.56
2024-04-19T21:35:20.874Z,101109.84
2024-04-19T21:57:55.343Z,101148.97
2024-04-19T22:20:27.402Z,101172.59
2024-04-19T22:42:59.349Z,101216.59
2024-04-19T23:05:31.277Z,101250.03
2024-04-19T23:28:03.326Z,101273.41
2024-04-19T23:50:38.525Z,101302.66
